createdAt,value
2023-03-12T00:01:54.210Z,75.95
2023-03-12T00:06:56.354Z,75.56
2023-03-12T00:11:58.297Z,75.70
2023-03-12T00:17:00.285Z,76.13
2023-03-12T00:22:02.288Z,76.34
2023-03-12T00:27:04.292Z,76.48
2023-03-12T00:32:06.786Z,76.35
2023-03-12T00:37:09.544Z,76.60
2023-03-12T00:42:11.640Z,76.22
2023-03-12T00:47:13.900Z,75.98
2023-03-12T00:52:15.972Z,76.01
2023-03-12T00:57:17.963Z,76.67
2023-03-12T01:02:19.965Z,75.99
2023-03-12T01:07:22.014Z,76.54
2023-03-12T01:12:24.171Z,76.65
2023-03-12T01:17:26.226Z,76.18
2023-03-12T01:22:28.294Z,76.56
2023-03-12T01:27:30.338Z,76.37
2023-03-12T01:32:32.464Z,75.81
2023-03-12T01:37:34.760Z,77.13
2023-03-12T01:42:36.752Z,75.94
2023-03-12T01:47:38.736Z,75.99
2023-03-12T01:52:40.866Z,76.35
2023-03-12T01:57:51.185Z,76.65
2023-03-12T02:02:56.579Z,76.25
2023-03-12T02:07:59.183Z,76.48
2023-03-12T02:13:01.370Z,77.37
2023-03-12T02:18:08.843Z,76.29
2023-03-12T02:23:21.510Z,76.62
2023-03-12T02:28:27.076Z,76.66
2023-03-12T02:33:29.139Z,76.08
2023-03-12T02:38:43.960Z,76.87
2023-03-12T02:43:49.943Z,77.18
2023-03-12T02:48:52.964Z,77.46
2023-03-12T02:53:55.289Z,77.03
2023-03-12T02:58:57.297Z,77.67
2023-03-12T03:03:59.287Z,77.74
2023-03-12T03:09:01.420Z,77.19
2023-03-12T03:14:04.635Z,77.70
2023-03-12T03:19:07.255Z,76.82
2023-03-12T03:24:09.274Z,76.68
2023-03-12T03:29:11.326Z,77.30
2023-03-12T03:34:13.355Z,77.71
2023-03-12T03:39:15.320Z,78.15
2023-03-12T03:44:17.313Z,77.12
2023-03-12T03:49:19.286Z,77.63
2023-03-12T03:54:21.231Z,77.86
2023-03-12T03:59:23.236Z,77.93
2023-03-12T04:04:25.188Z,78.73
2023-03-12T04:09:27.348Z,77.87
2023-03-12T04:14:29.432Z,78.95
2023-03-12T04:19:32.137Z,78.63
2023-03-12T04:24:34.100Z,78.34
2023-03-12T04:29:36.167Z,78.59
2023-03-12T04:34:38.185Z,78.63
2023-03-12T04:39:41.508Z,78.67
2023-03-12T04:44:43.572Z,77.78
2023-03-12T04:49:45.634Z,77.88
2023-03-12T04:54:48.157Z,78.77
2023-03-12T04:59:50.241Z,78.01
2023-03-12T05:04:52.180Z,78.91
2023-03-12T05:09:54.144Z,78.99
2023-03-12T05:14:56.201Z,79.21
2023-03-12T05:19:58.302Z,78.46
2023-03-12T05:25:00.236Z,78.11
2023-03-12T05:30:02.706Z,78.20
2023-03-12T05:35:05.058Z,79.44
2023-03-12T05:40:08.264Z,78.11
2023-03-12T05:45:10.955Z,78.93
2023-03-12T05:50:13.031Z,79.00
2023-03-12T05:55:14.974Z,78.90
2023-03-12T06:00:17.523Z,77.94
2023-03-12T06:05:19.641Z,78.60
2023-03-12T06:10:21.719Z,78.37
2023-03-12T06:15:23.751Z,78.97
2023-03-12T06:20:25.775Z,78.43
2023-03-12T06:25:27.801Z,78.93
2023-03-12T06:30:29.864Z,78.01
2023-03-12T06:35:31.914Z,78.66
2023-03-12T06:40:33.916Z,78.49
2023-03-12T06:45:35.911Z,79.33
2023-03-12T06:50:38.033Z,79.75
2023-03-12T06:55:40.074Z,79.66
2023-03-12T07:00:42.150Z,79.88
2023-03-12T07:05:46.063Z,81.31
2023-03-12T07:10:48.049Z,82.36
2023-03-12T07:15:50.256Z,83.01
2023-03-12T07:20:53.476Z,83.29
2023-03-12T07:25:55.819Z,84.35
2023-03-12T07:31:03.020Z,83.79
2023-03-12T07:36:05.757Z,83.67
2023-03-12T07:41:07.785Z,83.98
2023-03-12T07:46:09.897Z,82.99
2023-03-12T07:51:12.057Z,83.00
2023-03-12T07:56:14.213Z,81.93
2023-03-12T08:01:25.531Z,82.05
2023-03-12T08:06:27.799Z,81.72
2023-03-12T08:11:30.603Z,81.53
2023-03-12T08:16:32.647Z,81.11
2023-03-12T08:21:34.688Z,80.11
2023-03-12T08:26:36.819Z,80.87
2023-03-12T08:31:41.830Z,81.13
2023-03-12T08:36:48.174Z,80.27
2023-03-12T08:41:50.420Z,81.83
2023-03-12T08:46:52.907Z,81.43
2023-03-12T08:51:55.017Z,80.89
2023-03-12T08:56:57.074Z,81.10
2023-03-12T09:01:59.153Z,80.11
2023-03-12T09:07:02.044Z,79.83
2023-03-12T09:12:04.581Z,79.84
2023-03-12T09:17:06.805Z,79.71
2023-03-12T09:22:08.627Z,79.70
2023-03-12T09:27:10.658Z,79.56
2023-03-12T09:32:14.892Z,79.10
2023-03-12T09:37:16.980Z,79.32
2023-03-12T09:42:38.199Z,78.79
2023-03-12T09:48:02.937Z,79.18
2023-03-12T09:53:29.999Z,78.80
2023-03-12T09:58:35.143Z,78.83
2023-03-12T10:03:47.137Z,79.29
2023-03-12T10:09:07.836Z,78.52
2023-03-12T10:14:33.022Z,78.14
2023-03-12T10:19:56.279Z,77.75
2023-03-12T10:25:08.927Z,78.25
2023-03-12T10:30:19.029Z,76.78
2023-03-12T10:35:27.330Z,76.35
2023-03-12T10:40:34.560Z,74.47
2023-03-12T10:45:46.128Z,73.02
2023-03-12T10:51:09.050Z,72.34
2023-03-12T10:56:13.867Z,71.78
2023-03-12T11:01:16.288Z,70.58
2023-03-12T11:06:28.102Z,70.06
2023-03-12T11:11:38.128Z,69.63
2023-03-12T11:16:40.565Z,69.17
2023-03-12T11:22:00.649Z,67.36
2023-03-12T11:27:07.737Z,68.05
2023-03-12T11:32:29.681Z,68.43
2023-03-12T11:37:53.307Z,68.60
2023-03-12T11:43:36.035Z,69.22
2023-03-12T11:49:16.869Z,71.23
2023-03-12T11:54:52.389Z,71.63
2023-03-12T12:00:12.734Z,71.54
2023-03-12T12:05:38.858Z,71.46
2023-03-12T12:10:56.538Z,70.36
2023-03-12T12:16:13.768Z,71.63
2023-03-12T12:21:31.541Z,70.40
2023-03-12T12:26:50.266Z,69.02
2023-03-12T12:31:58.460Z,68.10
2023-03-12T12:37:31.246Z,68.24
2023-03-12T12:42:37.260Z,68.42
2023-03-12T12:48:09.572Z,67.94
2023-03-12T12:53:21.083Z,67.82
2023-03-12T12:58:43.664Z,67.68
2023-03-12T13:03:47.867Z,67.67
2023-03-12T13:08:50.937Z,67.47
2023-03-12T13:14:15.507Z,67.33
2023-03-12T13:19:17.626Z,67.33
2023-03-12T13:24:24.447Z,67.81
2023-03-12T13:29:29.806Z,68.77
2023-03-12T13:34:46.038Z,69.95
2023-03-12T13:39:48.183Z,69.89
2023-03-12T13:44:52.263Z,69.84
2023-03-12T13:50:08.903Z,69.57
2023-03-12T13:55:13.981Z,70.43
2023-03-12T14:00:26.923Z,69.92
2023-03-12T14:05:31.736Z,69.33
2023-03-12T14:10:40.214Z,68.44
2023-03-12T14:16:11.386Z,68.21
2023-03-12T14:21:17.120Z,68.36
2023-03-12T14:26:27.111Z,67.67
2023-03-12T14:31:32.350Z,66.64
2023-03-12T14:36:47.454Z,67.57
2023-03-12T14:42:18.430Z,67.40
2023-03-12T14:47:20.861Z,66.93
2023-03-12T14:52:32.616Z,66.97
2023-03-12T14:57:35.475Z,66.43
2023-03-12T15:02:38.938Z,66.17
2023-03-12T15:07:41.543Z,66.16
2023-03-12T15:12:46.618Z,66.50
2023-03-12T15:17:50.020Z,66.38
2023-03-12T15:22:54.766Z,65.94
2023-03-12T15:28:11.962Z,65.35
2023-03-12T15:33:17.397Z,66.09
2023-03-12T15:38:20.869Z,65.57
2023-03-12T15:43:25.675Z,65.51
2023-03-12T15:48:40.534Z,65.65
2023-03-12T15:53:43.114Z,65.27
2023-03-12T15:58:48.508Z,65.57
2023-03-12T16:03:51.669Z,64.72
2023-03-12T16:08:58.687Z,64.30
2023-03-12T16:14:25.650Z,64.56
2023-03-12T16:19:36.240Z,64.55
2023-03-12T16:24:39.068Z,65.12
2023-03-12T16:29:42.105Z,64.80
2023-03-12T16:34:46.394Z,64.55
2023-03-12T16:39:50.122Z,64.13
2023-03-12T16:44:54.087Z,64.43
2023-03-12T16:49:57.821Z,64.09
2023-03-12T16:55:00.085Z,64.51
2023-03-12T17:00:08.553Z,63.96
2023-03-12T17:05:12.221Z,64.32
2023-03-12T17:10:17.091Z,63.98
2023-03-12T17:15:31.715Z,64.19
2023-03-12T17:20:37.189Z,63.84
2023-03-12T17:25:46.591Z,64.07
2023-03-12T17:30:49.924Z,64.37
2023-03-12T17:36:13.157Z,64.19
2023-03-12T17:41:26.027Z,64.50
2023-03-12T17:46:32.254Z,64.57
2023-03-12T17:51:35.168Z,64.87
2023-03-12T17:56:38.067Z,64.84
2023-03-12T18:01:41.421Z,64.48
2023-03-12T18:06:46.227Z,65.15
2023-03-12T18:11:50.011Z,64.78
2023-03-12T18:16:52.934Z,64.68
2023-03-12T18:21:57.701Z,64.94
2023-03-12T18:27:01.452Z,65.31
2023-03-12T18:32:06.272Z,65.43
2023-03-12T18:37:10.866Z,64.94
2023-03-12T18:42:14.260Z,65.08
2023-03-12T18:47:17.300Z,64.96
2023-03-12T18:52:22.045Z,64.68
2023-03-12T18:57:25.234Z,65.04
2023-03-12T19:02:30.206Z,65.46
2023-03-12T19:07:33.802Z,65.66
2023-03-12T19:12:50.906Z,65.82
2023-03-12T19:17:55.442Z,66.04
2023-03-12T19:22:58.977Z,65.83
2023-03-12T19:28:04.353Z,65.85
2023-03-12T19:33:07.917Z,65.51
2023-03-12T19:38:11.857Z,66.16
2023-03-12T19:43:15.517Z,65.96
2023-03-12T19:48:18.666Z,66.46
2023-03-12T19:53:21.552Z,66.13
2023-03-12T19:58:25.249Z,66.94
2023-03-12T20:03:29.358Z,66.84
2023-03-12T20:08:32.619Z,67.09
2023-03-12T20:13:36.317Z,67.03
2023-03-12T20:18:39.491Z,67.25
2023-03-12T20:23:43.866Z,66.97
2023-03-12T20:28:47.167Z,66.88
2023-03-12T20:33:50.403Z,67.20
2023-03-12T20:38:53.150Z,66.95
2023-03-12T20:43:57.892Z,67.56
2023-03-12T20:49:04.018Z,67.45
2023-03-12T20:54:07.113Z,67.37
2023-03-12T20:59:10.441Z,67.74
2023-03-12T21:04:13.376Z,67.73
2023-03-12T21:09:18.126Z,67.36
2023-03-12T21:14:20.778Z,67.84
2023-03-12T21:19:23.623Z,67.91
2023-03-12T21:24:26.300Z,68.10
2023-03-12T21:29:28.549Z,67.66
2023-03-12T21:34:30.906Z,68.09
2023-03-12T21:39:33.632Z,67.83
2023-03-12T21:44:37.006Z,68.18
2023-03-12T21:49:39.107Z,68.46
2023-03-12T21:54:41.137Z,68.42
2023-03-12T21:59:43.161Z,68.81
2023-03-12T22:04:45.177Z,68.95
2023-03-12T22:09:47.255Z,69.07
2023-03-12T22:14:49.257Z,69.37
2023-03-12T22:19:51.252Z,69.13
2023-03-12T22:24:53.276Z,69.49
2023-03-12T22:29:57.629Z,69.29
2023-03-12T22:34:59.679Z,69.79
2023-03-12T22:40:07.232Z,69.61
2023-03-12T22:45:09.892Z,69.52
2023-03-12T22:50:12.681Z,69.97
2023-03-12T22:55:14.907Z,69.31
2023-03-12T23:00:23.078Z,69.40
2023-03-12T23:05:25.195Z,69.64
2023-03-12T23:10:27.319Z,69.68
2023-03-12T23:15:40.518Z,69.72
2023-03-12T23:20:43.881Z,69.81
2023-03-12T23:25:53.354Z,69.75
2023-03-12T23:31:02.435Z,69.91
2023-03-12T23:36:07.484Z,69.88
2023-03-12T23:41:18.302Z,70.52
2023-03-12T23:46:20.547Z,70.69
2023-03-12T23:51:28.616Z,70.95
2023-03-12T23:56:36.956Z,71.11
